sensor_id;sensor_type;location;lat;lon;timestamp;P1;durP1;ratioP1;P2;durP2;ratioP2
69765;SDS011;57039;48.014;21.384;2023-03-23T00:00:02;19.77;;;11.40;;
69765;SDS011;57039;48.014;21.384;2023-03-23T00:01:12;21.63;;;12.20;;
69765;SDS011;57039;48.014;21.384;2023-03-23T00:02:14;17.40;;;11.18;;
69765;SDS011;57039;48.014;21.384;2023-03-23T00:03:15;18.08;;;11.25;;
69765;SDS011;57039;48.014;21.384;2023-03-23T00:04:18;18.98;;;11.63;;
69765;SDS011;57039;48.014;21.384;2023-03-23T00:05:19;20.00;;;12.18;;
69765;SDS011;57039;48.014;21.384;2023-03-23T00:06:20;19.30;;;11.18;;
69765;SDS011;57039;48.014;21.384;2023-03-23T00:07:22;20.65;;;12.10;;
69765;SDS011;57039;48.014;21.384;2023-03-23T00:08:28;21.87;;;12.52;;
69765;SDS011;57039;48.014;21.384;2023-03-23T00:09:30;18.30;;;11.90;;
69765;SDS011;57039;48.014;21.384;2023-03-23T00:10:35;18.30;;;11.17;;
69765;SDS011;57039;48.014;21.384;2023-03-23T00:11:36;21.57;;;11.90;;
69765;SDS011;57039;48.014;21.384;2023-03-23T00:12:38;20.45;;;11.95;;
69765;SDS011;57039;48.014;21.384;2023-03-23T00:13:43;19.15;;;11.25;;
69765;SDS011;57039;48.014;21.384;2023-03-23T00:14:44;20.58;;;11.55;;
69765;SDS011;57039;48.014;21.384;2023-03-23T00:15:46;20.70;;;11.80;;
69765;SDS011;57039;48.014;21.384;2023-03-23T00:16:49;26.37;;;12.60;;
69765;SDS011;57039;48.014;21.384;2023-03-23T00:17:51;23.27;;;13.07;;
69765;SDS011;57039;48.014;21.384;2023-03-23T00:18:53;20.10;;;12.52;;
69765;SDS011;57039;48.014;21.384;2023-03-23T00:19:55;21.20;;;12.88;;
69765;SDS011;57039;48.014;21.384;2023-03-23T00:20:56;20.73;;;12.50;;
69765;SDS011;57039;48.014;21.384;2023-03-23T00:21:58;21.57;;;13.40;;
69765;SDS011;57039;48.014;21.384;2023-03-23T00:23:02;22.87;;;13.30;;
69765;SDS011;57039;48.014;21.384;2023-03-23T00:25:09;22.48;;;12.90;;
69765;SDS011;57039;48.014;21.384;2023-03-23T00:26:11;23.00;;;14.00;;
69765;SDS011;57039;48.014;21.384;2023-03-23T00:27:12;24.45;;;13.13;;
69765;SDS011;57039;48.014;21.384;2023-03-23T00:28:16;22.60;;;13.20;;
69765;SDS011;57039;48.014;21.384;2023-03-23T00:29:20;21.75;;;12.93;;
69765;SDS011;57039;48.014;21.384;2023-03-23T00:30:25;21.75;;;13.57;;
69765;SDS011;57039;48.014;21.384;2023-03-23T00:31:27;20.73;;;12.73;;
69765;SDS011;57039;48.014;21.384;2023-03-23T00:32:32;21.50;;;12.83;;
69765;SDS011;57039;48.014;21.384;2023-03-23T00:33:37;23.33;;;13.40;;
69765;SDS011;57039;48.014;21.384;2023-03-23T00:34:44;23.58;;;13.82;;
69765;SDS011;57039;48.014;21.384;2023-03-23T00:35:47;24.08;;;13.93;;
69765;SDS011;57039;48.014;21.384;2023-03-23T00:36:52;22.37;;;13.68;;
69765;SDS011;57039;48.014;21.384;2023-03-23T00:38:03;23.50;;;13.52;;
69765;SDS011;57039;48.014;21.384;2023-03-23T00:39:05;22.67;;;13.27;;
69765;SDS011;57039;48.014;21.384;2023-03-23T00:40:07;21.08;;;13.15;;
69765;SDS011;57039;48.014;21.384;2023-03-23T00:41:11;23.00;;;13.55;;
69765;SDS011;57039;48.014;21.384;2023-03-23T00:42:14;30.57;;;14.07;;
69765;SDS011;57039;48.014;21.384;2023-03-23T00:43:16;23.07;;;13.53;;
69765;SDS011;57039;48.014;21.384;2023-03-23T00:44:18;25.05;;;13.40;;
69765;SDS011;57039;48.014;21.384;2023-03-23T00:45:19;22.85;;;13.95;;
69765;SDS011;57039;48.014;21.384;2023-03-23T00:46:20;23.05;;;13.32;;
69765;SDS011;57039;48.014;21.384;2023-03-23T00:47:22;22.85;;;13.80;;
69765;SDS011;57039;48.014;21.384;2023-03-23T00:48:24;20.40;;;12.60;;
69765;SDS011;57039;48.014;21.384;2023-03-23T00:49:27;22.37;;;12.95;;
69765;SDS011;57039;48.014;21.384;2023-03-23T00:50:28;23.98;;;13.52;;
69765;SDS011;57039;48.014;21.384;2023-03-23T00:51:30;22.40;;;13.38;;
69765;SDS011;57039;48.014;21.384;2023-03-23T00:52:31;22.13;;;12.93;;
69765;SDS011;57039;48.014;21.384;2023-03-23T00:53:32;23.40;;;13.10;;
69765;SDS011;57039;48.014;21.384;2023-03-23T00:54:34;22.40;;;13.10;;
69765;SDS011;57039;48.014;21.384;2023-03-23T00:55:40;21.23;;;13.02;;
69765;SDS011;57039;48.014;21.384;2023-03-23T00:56:41;24.95;;;13.48;;
69765;SDS011;57039;48.014;21.384;2023-03-23T00:57:43;24.33;;;13.85;;
69765;SDS011;57039;48.014;21.384;2023-03-23T00:58:44;20.92;;;12.57;;
69765;SDS011;57039;48.014;21.384;2023-03-23T00:59:46;24.30;;;13.62;;
69765;SDS011;57039;48.014;21.384;2023-03-23T01:00:49;24.55;;;13.23;;
69765;SDS011;57039;48.014;21.384;2023-03-23T01:01:50;24.27;;;13.38;;
69765;SDS011;57039;48.014;21.384;2023-03-23T01:02:52;21.23;;;13.27;;
69765;SDS011;57039;48.014;21.384;2023-03-23T01:03:54;23.53;;;13.97;;
69765;SDS011;57039;48.014;21.384;2023-03-23T01:05:01;22.02;;;14.20;;
69765;SDS011;57039;48.014;21.384;2023-03-23T01:06:05;24.92;;;14.52;;
69765;SDS011;57039;48.014;21.384;2023-03-23T01:07:07;24.12;;;14.60;;
69765;SDS011;57039;48.014;21.384;2023-03-23T01:08:09;25.42;;;14.63;;
69765;SDS011;57039;48.014;21.384;2023-03-23T01:09:12;26.65;;;15.15;;
69765;SDS011;57039;48.014;21.384;2023-03-23T01:10:18;25.02;;;14.48;;
69765;SDS011;57039;48.014;21.384;2023-03-23T01:11:19;24.02;;;14.32;;
69765;SDS011;57039;48.014;21.384;2023-03-23T01:12:21;25.08;;;15.35;;
69765;SDS011;57039;48.014;21.384;2023-03-23T01:13:25;26.47;;;15.83;;
69765;SDS011;57039;48.014;21.384;2023-03-23T01:14:26;23.17;;;13.60;;
69765;SDS011;57039;48.014;21.384;2023-03-23T01:15:28;23.80;;;14.87;;
69765;SDS011;57039;48.014;21.384;2023-03-23T01:16:30;23.58;;;13.45;;
69765;SDS011;57039;48.014;21.384;2023-03-23T01:17:31;25.33;;;14.52;;
69765;SDS011;57039;48.014;21.384;2023-03-23T01:18:33;28.08;;;13.90;;
69765;SDS011;57039;48.014;21.384;2023-03-23T01:19:34;23.42;;;14.18;;
69765;SDS011;57039;48.014;21.384;2023-03-23T01:20:37;24.55;;;14.13;;
69765;SDS011;57039;48.014;21.384;2023-03-23T01:21:39;25.40;;;14.13;;
69765;SDS011;57039;48.014;21.384;2023-03-23T01:22:41;27.90;;;15.23;;
69765;SDS011;57039;48.014;21.384;2023-03-23T01:23:43;27.63;;;14.97;;
69765;SDS011;57039;48.014;21.384;2023-03-23T01:24:44;29.77;;;15.60;;
69765;SDS011;57039;48.014;21.384;2023-03-23T01:25:46;27.23;;;15.35;;
69765;SDS011;57039;48.014;21.384;2023-03-23T01:26:48;28.73;;;15.60;;
69765;SDS011;57039;48.014;21.384;2023-03-23T01:27:50;28.58;;;14.63;;
69765;SDS011;57039;48.014;21.384;2023-03-23T01:28:52;29.02;;;14.60;;
69765;SDS011;57039;48.014;21.384;2023-03-23T01:29:53;26.90;;;14.27;;
69765;SDS011;57039;48.014;21.384;2023-03-23T01:30:59;25.67;;;14.45;;
69765;SDS011;57039;48.014;21.384;2023-03-23T01:32:03;26.92;;;14.70;;
69765;SDS011;57039;48.014;21.384;2023-03-23T01:33:04;26.70;;;14.68;;
69765;SDS011;57039;48.014;21.384;2023-03-23T01:34:06;26.30;;;13.60;;
69765;SDS011;57039;48.014;21.384;2023-03-23T01:35:08;25.30;;;13.97;;
69765;SDS011;57039;48.014;21.384;2023-03-23T01:36:14;30.75;;;15.30;;
69765;SDS011;57039;48.014;21.384;2023-03-23T01:37:16;26.55;;;15.30;;
69765;SDS011;57039;48.014;21.384;2023-03-23T01:38:18;25.17;;;14.55;;
69765;SDS011;57039;48.014;21.384;2023-03-23T01:39:19;26.95;;;14.57;;
69765;SDS011;57039;48.014;21.384;2023-03-23T01:40:21;24.80;;;14.00;;
69765;SDS011;57039;48.014;21.384;2023-03-23T01:41:23;27.15;;;14.25;;
69765;SDS011;57039;48.014;21.384;2023-03-23T01:42:25;24.02;;;14.43;;
69765;SDS011;57039;48.014;21.384;2023-03-23T01:43:26;23.85;;;13.75;;
69765;SDS011;57039;48.014;21.384;2023-03-23T01:45:34;29.80;;;14.93;;
69765;SDS011;57039;48.014;21.384;2023-03-23T01:46:36;24.40;;;14.43;;
69765;SDS011;57039;48.014;21.384;2023-03-23T01:47:38;28.23;;;14.60;;
69765;SDS011;57039;48.014;21.384;2023-03-23T01:48:39;26.92;;;15.30;;
69765;SDS011;57039;48.014;21.384;2023-03-23T01:49:42;26.87;;;14.35;;
69765;SDS011;57039;48.014;21.384;2023-03-23T01:51:53;26.05;;;14.80;;
69765;SDS011;57039;48.014;21.384;2023-03-23T01:52:57;23.58;;;14.18;;
69765;SDS011;57039;48.014;21.384;2023-03-23T01:54:00;27.15;;;14.75;;
69765;SDS011;57039;48.014;21.384;2023-03-23T01:55:03;26.87;;;14.97;;
69765;SDS011;57039;48.014;21.384;2023-03-23T01:56:06;25.47;;;15.23;;
69765;SDS011;57039;48.014;21.384;2023-03-23T01:57:12;27.17;;;14.80;;
69765;SDS011;57039;48.014;21.384;2023-03-23T01:58:15;25.60;;;14.30;;
69765;SDS011;57039;48.014;21.384;2023-03-23T01:59:17;28.87;;;15.00;;
69765;SDS011;57039;48.014;21.384;2023-03-23T02:00:21;25.73;;;15.25;;
69765;SDS011;57039;48.014;21.384;2023-03-23T02:01:23;28.27;;;14.85;;
69765;SDS011;57039;48.014;21.384;2023-03-23T02:02:28;23.98;;;14.63;;
69765;SDS011;57039;48.014;21.384;2023-03-23T02:03:30;27.92;;;14.57;;
69765;SDS011;57039;48.014;21.384;2023-03-23T02:04:32;29.40;;;15.43;;
69765;SDS011;57039;48.014;21.384;2023-03-23T02:05:39;27.20;;;15.10;;
69765;SDS011;57039;48.014;21.384;2023-03-23T02:06:41;29.20;;;15.67;;
69765;SDS011;57039;48.014;21.384;2023-03-23T02:07:44;27.50;;;15.02;;
69765;SDS011;57039;48.014;21.384;2023-03-23T02:08:47;28.60;;;15.27;;
69765;SDS011;57039;48.014;21.384;2023-03-23T02:09:50;26.95;;;15.48;;
69765;SDS011;57039;48.014;21.384;2023-03-23T02:10:51;26.15;;;15.48;;
69765;SDS011;57039;48.014;21.384;2023-03-23T02:11:53;33.00;;;15.18;;
69765;SDS011;57039;48.014;21.384;2023-03-23T02:12:56;24.85;;;15.40;;
69765;SDS011;57039;48.014;21.384;2023-03-23T02:13:57;25.05;;;14.93;;
69765;SDS011;57039;48.014;21.384;2023-03-23T02:14:59;26.45;;;14.32;;
69765;SDS011;57039;48.014;21.384;2023-03-23T02:20:58;25.25;;;14.32;;
69765;SDS011;57039;48.014;21.384;2023-03-23T02:26:01;29.30;;;15.85;;
69765;SDS011;57039;48.014;21.384;2023-03-23T02:29:42;23.00;;;13.77;;
69765;SDS011;57039;48.014;21.384;2023-03-23T02:31:05;24.80;;;14.23;;
69765;SDS011;57039;48.014;21.384;2023-03-23T02:32:21;24.65;;;14.30;;
69765;SDS011;57039;48.014;21.384;2023-03-23T02:34:41;27.05;;;15.38;;
69765;SDS011;57039;48.014;21.384;2023-03-23T02:35:44;28.20;;;14.95;;
69765;SDS011;57039;48.014;21.384;2023-03-23T02:37:02;27.13;;;15.35;;
69765;SDS011;57039;48.014;21.384;2023-03-23T02:38:06;27.95;;;14.15;;
69765;SDS011;57039;48.014;21.384;2023-03-23T02:39:12;26.35;;;15.43;;
69765;SDS011;57039;48.014;21.384;2023-03-23T02:40:17;27.27;;;15.20;;
69765;SDS011;57039;48.014;21.384;2023-03-23T02:41:21;27.93;;;15.97;;
69765;SDS011;57039;48.014;21.384;2023-03-23T02:42:26;28.00;;;15.68;;
69765;SDS011;57039;48.014;21.384;2023-03-23T02:43:31;26.35;;;14.98;;
69765;SDS011;57039;48.014;21.384;2023-03-23T02:44:35;29.35;;;15.98;;
69765;SDS011;57039;48.014;21.384;2023-03-23T02:45:37;27.95;;;14.80;;
69765;SDS011;57039;48.014;21.384;2023-03-23T02:46:40;27.60;;;15.25;;
69765;SDS011;57039;48.014;21.384;2023-03-23T02:47:43;28.83;;;15.88;;
69765;SDS011;57039;48.014;21.384;2023-03-23T02:48:46;24.80;;;14.77;;
69765;SDS011;57039;48.014;21.384;2023-03-23T02:49:52;26.77;;;15.27;;
69765;SDS011;57039;48.014;21.384;2023-03-23T02:50:54;25.93;;;14.70;;
69765;SDS011;57039;48.014;21.384;2023-03-23T02:51:56;29.97;;;16.73;;
69765;SDS011;57039;48.014;21.384;2023-03-23T02:53:00;26.67;;;15.43;;
69765;SDS011;57039;48.014;21.384;2023-03-23T02:54:02;32.42;;;16.50;;
69765;SDS011;57039;48.014;21.384;2023-03-23T02:55:04;30.05;;;16.23;;
69765;SDS011;57039;48.014;21.384;2023-03-23T02:56:07;35.13;;;17.65;;
69765;SDS011;57039;48.014;21.384;2023-03-23T02:57:10;38.53;;;18.95;;
69765;SDS011;57039;48.014;21.384;2023-03-23T02:58:13;31.73;;;17.35;;
69765;SDS011;57039;48.014;21.384;2023-03-23T02:59:15;26.87;;;15.48;;
69765;SDS011;57039;48.014;21.384;2023-03-23T03:00:17;28.92;;;14.82;;
69765;SDS011;57039;48.014;21.384;2023-03-23T03:02:31;24.50;;;15.07;;
69765;SDS011;57039;48.014;21.384;2023-03-23T03:03:33;28.67;;;14.98;;
69765;SDS011;57039;48.014;21.384;2023-03-23T03:04:35;25.20;;;14.35;;
69765;SDS011;57039;48.014;21.384;2023-03-23T03:05:38;24.52;;;14.32;;
69765;SDS011;57039;48.014;21.384;2023-03-23T03:10:24;27.90;;;15.82;;
69765;SDS011;57039;48.014;21.384;2023-03-23T03:11:27;29.52;;;14.40;;
69765;SDS011;57039;48.014;21.384;2023-03-23T03:13:56;21.63;;;14.00;;
69765;SDS011;57039;48.014;21.384;2023-03-23T03:16:17;25.98;;;14.35;;
69765;SDS011;57039;48.014;21.384;2023-03-23T03:17:25;26.67;;;12.98;;
69765;SDS011;57039;48.014;21.384;2023-03-23T03:19:29;24.17;;;13.85;;
69765;SDS011;57039;48.014;21.384;2023-03-23T03:20:33;26.08;;;14.55;;
69765;SDS011;57039;48.014;21.384;2023-03-23T03:21:39;25.88;;;15.45;;
69765;SDS011;57039;48.014;21.384;2023-03-23T03:22:43;25.35;;;15.45;;
69765;SDS011;57039;48.014;21.384;2023-03-23T03:23:45;26.90;;;14.97;;
69765;SDS011;57039;48.014;21.384;2023-03-23T03:24:50;25.40;;;14.53;;
69765;SDS011;57039;48.014;21.384;2023-03-23T03:25:53;23.90;;;14.07;;
69765;SDS011;57039;48.014;21.384;2023-03-23T03:26:56;23.10;;;14.52;;
69765;SDS011;57039;48.014;21.384;2023-03-23T03:27:59;26.15;;;14.57;;
69765;SDS011;57039;48.014;21.384;2023-03-23T03:29:01;23.87;;;13.25;;
69765;SDS011;57039;48.014;21.384;2023-03-23T03:30:09;25.92;;;14.52;;
69765;SDS011;57039;48.014;21.384;2023-03-23T03:31:16;25.73;;;14.13;;
69765;SDS011;57039;48.014;21.384;2023-03-23T03:32:21;24.98;;;13.62;;
69765;SDS011;57039;48.014;21.384;2023-03-23T03:33:24;25.35;;;14.38;;
69765;SDS011;57039;48.014;21.384;2023-03-23T03:34:28;25.17;;;14.20;;
69765;SDS011;57039;48.014;21.384;2023-03-23T03:35:34;26.30;;;13.73;;
69765;SDS011;57039;48.014;21.384;2023-03-23T03:36:37;26.12;;;14.23;;
69765;SDS011;57039;48.014;21.384;2023-03-23T03:37:40;23.75;;;14.18;;
69765;SDS011;57039;48.014;21.384;2023-03-23T03:38:42;23.23;;;14.13;;
69765;SDS011;57039;48.014;21.384;2023-03-23T03:39:44;26.70;;;13.80;;
69765;SDS011;57039;48.014;21.384;2023-03-23T03:40:45;27.00;;;15.40;;
69765;SDS011;57039;48.014;21.384;2023-03-23T03:41:47;26.85;;;14.50;;
69765;SDS011;57039;48.014;21.384;2023-03-23T03:42:49;24.90;;;13.55;;
69765;SDS011;57039;48.014;21.384;2023-03-23T03:43:51;24.35;;;15.00;;
69765;SDS011;57039;48.014;21.384;2023-03-23T03:44:52;25.43;;;14.40;;
69765;SDS011;57039;48.014;21.384;2023-03-23T03:45:53;30.13;;;14.57;;
69765;SDS011;57039;48.014;21.384;2023-03-23T03:46:55;23.08;;;13.30;;
69765;SDS011;57039;48.014;21.384;2023-03-23T03:47:57;23.35;;;13.35;;
69765;SDS011;57039;48.014;21.384;2023-03-23T03:48:58;22.77;;;13.50;;
69765;SDS011;57039;48.014;21.384;2023-03-23T03:50:00;26.12;;;14.60;;
69765;SDS011;57039;48.014;21.384;2023-03-23T03:51:02;24.45;;;13.88;;
69765;SDS011;57039;48.014;21.384;2023-03-23T03:52:04;22.92;;;13.40;;
69765;SDS011;57039;48.014;21.384;2023-03-23T03:53:07;24.87;;;14.15;;
69765;SDS011;57039;48.014;21.384;2023-03-23T03:54:09;27.60;;;15.40;;
69765;SDS011;57039;48.014;21.384;2023-03-23T03:55:11;24.90;;;13.70;;
69765;SDS011;57039;48.014;21.384;2023-03-23T03:56:13;26.30;;;14.33;;
69765;SDS011;57039;48.014;21.384;2023-03-23T03:57:16;24.77;;;14.35;;
69765;SDS011;57039;48.014;21.384;2023-03-23T03:58:19;25.48;;;14.45;;
69765;SDS011;57039;48.014;21.384;2023-03-23T03:59:22;24.10;;;14.50;;
69765;SDS011;57039;48.014;21.384;2023-03-23T04:00:24;25.37;;;13.50;;
69765;SDS011;57039;48.014;21.384;2023-03-23T04:01:26;23.12;;;13.45;;
69765;SDS011;57039;48.014;21.384;2023-03-23T04:02:29;24.37;;;14.70;;
69765;SDS011;57039;48.014;21.384;2023-03-23T04:03:30;22.17;;;13.32;;
69765;SDS011;57039;48.014;21.384;2023-03-23T04:04:32;23.62;;;13.68;;
69765;SDS011;57039;48.014;21.384;2023-03-23T04:05:35;25.43;;;14.03;;
69765;SDS011;57039;48.014;21.384;2023-03-23T04:06:37;23.53;;;13.17;;
69765;SDS011;57039;48.014;21.384;2023-03-23T04:07:39;23.98;;;13.52;;
69765;SDS011;57039;48.014;21.384;2023-03-23T04:08:42;23.85;;;14.70;;
69765;SDS011;57039;48.014;21.384;2023-03-23T04:09:44;26.05;;;14.18;;
69765;SDS011;57039;48.014;21.384;2023-03-23T04:10:50;25.42;;;14.52;;
69765;SDS011;57039;48.014;21.384;2023-03-23T04:11:52;26.00;;;14.32;;
69765;SDS011;57039;48.014;21.384;2023-03-23T04:12:56;24.52;;;13.38;;
69765;SDS011;57039;48.014;21.384;2023-03-23T04:13:59;23.80;;;13.68;;
69765;SDS011;57039;48.014;21.384;2023-03-23T04:15:01;27.80;;;15.40;;
69765;SDS011;57039;48.014;21.384;2023-03-23T04:16:03;30.93;;;13.10;;
69765;SDS011;57039;48.014;21.384;2023-03-23T04:17:06;26.67;;;14.37;;
69765;SDS011;57039;48.014;21.384;2023-03-23T04:18:12;27.40;;;14.15;;
69765;SDS011;57039;48.014;21.384;2023-03-23T04:19:14;24.00;;;14.02;;
69765;SDS011;57039;48.014;21.384;2023-03-23T04:20:16;24.10;;;14.13;;
69765;SDS011;57039;48.014;21.384;2023-03-23T04:21:21;28.10;;;14.40;;
69765;SDS011;57039;48.014;21.384;2023-03-23T04:22:23;25.40;;;14.87;;
69765;SDS011;57039;48.014;21.384;2023-03-23T04:23:33;22.20;;;14.00;;
69765;SDS011;57039;48.014;21.384;2023-03-23T04:24:36;26.35;;;14.95;;
69765;SDS011;57039;48.014;21.384;2023-03-23T04:25:39;27.85;;;15.55;;
69765;SDS011;57039;48.014;21.384;2023-03-23T04:26:43;24.77;;;13.73;;
69765;SDS011;57039;48.014;21.384;2023-03-23T04:27:50;23.23;;;13.90;;
69765;SDS011;57039;48.014;21.384;2023-03-23T04:28:55;24.52;;;13.60;;
69765;SDS011;57039;48.014;21.384;2023-03-23T04:29:59;24.73;;;14.80;;
69765;SDS011;57039;48.014;21.384;2023-03-23T04:31:02;22.52;;;13.25;;
69765;SDS011;57039;48.014;21.384;2023-03-23T04:32:03;25.85;;;14.25;;
69765;SDS011;57039;48.014;21.384;2023-03-23T04:33:05;25.20;;;14.18;;
69765;SDS011;57039;48.014;21.384;2023-03-23T04:34:07;25.27;;;14.75;;
69765;SDS011;57039;48.014;21.384;2023-03-23T04:35:10;22.75;;;14.00;;
69765;SDS011;57039;48.014;21.384;2023-03-23T04:36:12;33.05;;;15.00;;
69765;SDS011;57039;48.014;21.384;2023-03-23T04:37:18;27.53;;;14.23;;
69765;SDS011;57039;48.014;21.384;2023-03-23T04:38:20;25.50;;;14.83;;
69765;SDS011;57039;48.014;21.384;2023-03-23T04:39:22;27.52;;;14.07;;
69765;SDS011;57039;48.014;21.384;2023-03-23T04:40:25;23.48;;;13.77;;
69765;SDS011;57039;48.014;21.384;2023-03-23T04:41:28;24.15;;;14.18;;
69765;SDS011;57039;48.014;21.384;2023-03-23T04:42:30;24.12;;;13.00;;
69765;SDS011;57039;48.014;21.384;2023-03-23T04:43:33;25.48;;;12.80;;
69765;SDS011;57039;48.014;21.384;2023-03-23T04:44:43;24.52;;;13.73;;
69765;SDS011;57039;48.014;21.384;2023-03-23T04:45:54;23.50;;;13.90;;
69765;SDS011;57039;48.014;21.384;2023-03-23T04:47:02;25.60;;;13.80;;
69765;SDS011;57039;48.014;21.384;2023-03-23T04:48:04;22.30;;;13.40;;
69765;SDS011;57039;48.014;21.384;2023-03-23T04:49:06;22.63;;;13.23;;
69765;SDS011;57039;48.014;21.384;2023-03-23T04:50:09;23.73;;;13.68;;
69765;SDS011;57039;48.014;21.384;2023-03-23T04:51:14;25.02;;;13.35;;
69765;SDS011;57039;48.014;21.384;2023-03-23T04:52:16;24.87;;;13.77;;
69765;SDS011;57039;48.014;21.384;2023-03-23T04:53:17;23.98;;;13.93;;
69765;SDS011;57039;48.014;21.384;2023-03-23T04:54:20;25.55;;;13.93;;
69765;SDS011;57039;48.014;21.384;2023-03-23T04:55:22;26.08;;;13.32;;
69765;SDS011;57039;48.014;21.384;2023-03-23T04:56:24;26.77;;;14.13;;
69765;SDS011;57039;48.014;21.384;2023-03-23T04:57:25;21.20;;;13.75;;
69765;SDS011;57039;48.014;21.384;2023-03-23T04:58:30;23.97;;;13.33;;
69765;SDS011;57039;48.014;21.384;2023-03-23T04:59:35;22.50;;;13.80;;
69765;SDS011;57039;48.014;21.384;2023-03-23T05:00:37;24.25;;;13.68;;
69765;SDS011;57039;48.014;21.384;2023-03-23T05:01:39;23.85;;;13.85;;
69765;SDS011;57039;48.014;21.384;2023-03-23T05:02:42;22.42;;;12.90;;
69765;SDS011;57039;48.014;21.384;2023-03-23T05:03:44;27.85;;;13.70;;
69765;SDS011;57039;48.014;21.384;2023-03-23T05:04:46;23.00;;;13.40;;
69765;SDS011;57039;48.014;21.384;2023-03-23T05:05:47;28.60;;;13.38;;
69765;SDS011;57039;48.014;21.384;2023-03-23T05:06:52;25.27;;;12.90;;
69765;SDS011;57039;48.014;21.384;2023-03-23T05:07:54;25.60;;;13.55;;
69765;SDS011;57039;48.014;21.384;2023-03-23T05:08:56;22.43;;;13.13;;
69765;SDS011;57039;48.014;21.384;2023-03-23T05:09:58;23.77;;;13.17;;
69765;SDS011;57039;48.014;21.384;2023-03-23T05:11:00;23.48;;;12.82;;
69765;SDS011;57039;48.014;21.384;2023-03-23T05:12:06;22.92;;;13.07;;
69765;SDS011;57039;48.014;21.384;2023-03-23T05:13:09;25.12;;;14.38;;
69765;SDS011;57039;48.014;21.384;2023-03-23T05:14:10;25.55;;;14.07;;
69765;SDS011;57039;48.014;21.384;2023-03-23T05:15:13;26.05;;;14.15;;
69765;SDS011;57039;48.014;21.384;2023-03-23T05:16:14;23.20;;;13.90;;
69765;SDS011;57039;48.014;21.384;2023-03-23T05:17:16;24.50;;;12.95;;
69765;SDS011;57039;48.014;21.384;2023-03-23T05:18:18;24.20;;;13.43;;
69765;SDS011;57039;48.014;21.384;2023-03-23T05:19:21;25.33;;;13.70;;
69765;SDS011;57039;48.014;21.384;2023-03-23T05:20:24;23.97;;;13.47;;
69765;SDS011;57039;48.014;21.384;2023-03-23T05:21:27;29.67;;;13.30;;
69765;SDS011;57039;48.014;21.384;2023-03-23T05:22:29;25.67;;;13.65;;
69765;SDS011;57039;48.014;21.384;2023-03-23T05:23:33;25.70;;;13.82;;
69765;SDS011;57039;48.014;21.384;2023-03-23T05:24:35;26.33;;;14.70;;
69765;SDS011;57039;48.014;21.384;2023-03-23T05:25:37;24.75;;;13.02;;
69765;SDS011;57039;48.014;21.384;2023-03-23T05:26:42;25.60;;;13.45;;
69765;SDS011;57039;48.014;21.384;2023-03-23T05:27:45;26.75;;;14.50;;
69765;SDS011;57039;48.014;21.384;2023-03-23T05:28:50;28.38;;;14.98;;
69765;SDS011;57039;48.014;21.384;2023-03-23T05:29:54;24.57;;;13.83;;
69765;SDS011;57039;48.014;21.384;2023-03-23T05:30:58;25.60;;;14.87;;
69765;SDS011;57039;48.014;21.384;2023-03-23T05:32:03;25.08;;;13.50;;
69765;SDS011;57039;48.014;21.384;2023-03-23T05:33:07;23.85;;;13.82;;
69765;SDS011;57039;48.014;21.384;2023-03-23T05:34:09;24.27;;;14.13;;
69765;SDS011;57039;48.014;21.384;2023-03-23T05:35:13;22.00;;;13.43;;
69765;SDS011;57039;48.014;21.384;2023-03-23T05:36:15;23.20;;;13.85;;
69765;SDS011;57039;48.014;21.384;2023-03-23T05:37:17;23.83;;;13.32;;
69765;SDS011;57039;48.014;21.384;2023-03-23T05:38:19;26.10;;;14.05;;
69765;SDS011;57039;48.014;21.384;2023-03-23T05:39:21;22.67;;;12.93;;
69765;SDS011;57039;48.014;21.384;2023-03-23T05:40:25;24.30;;;13.33;;
69765;SDS011;57039;48.014;21.384;2023-03-23T05:41:29;22.40;;;13.33;;
69765;SDS011;57039;48.014;21.384;2023-03-23T05:42:31;25.12;;;13.55;;
69765;SDS011;57039;48.014;21.384;2023-03-23T05:43:35;23.10;;;13.80;;
69765;SDS011;57039;48.014;21.384;2023-03-23T05:44:38;23.52;;;13.75;;
69765;SDS011;57039;48.014;21.384;2023-03-23T05:45:40;23.35;;;13.62;;
69765;SDS011;57039;48.014;21.384;2023-03-23T05:46:42;23.52;;;13.45;;
69765;SDS011;57039;48.014;21.384;2023-03-23T05:47:44;23.38;;;14.30;;
69765;SDS011;57039;48.014;21.384;2023-03-23T05:48:46;24.77;;;15.07;;
69765;SDS011;57039;48.014;21.384;2023-03-23T05:49:49;25.75;;;13.77;;
69765;SDS011;57039;48.014;21.384;2023-03-23T05:50:51;23.23;;;13.90;;
69765;SDS011;57039;48.014;21.384;2023-03-23T05:51:56;22.93;;;14.17;;
69765;SDS011;57039;48.014;21.384;2023-03-23T05:52:58;24.05;;;13.15;;
69765;SDS011;57039;48.014;21.384;2023-03-23T05:53:59;23.45;;;13.62;;
69765;SDS011;57039;48.014;21.384;2023-03-23T05:55:02;25.35;;;14.00;;
69765;SDS011;57039;48.014;21.384;2023-03-23T05:56:05;22.58;;;12.93;;
69765;SDS011;57039;48.014;21.384;2023-03-23T05:57:09;22.58;;;13.48;;
69765;SDS011;57039;48.014;21.384;2023-03-23T05:58:10;23.02;;;14.00;;
69765;SDS011;57039;48.014;21.384;2023-03-23T05:59:12;23.85;;;14.02;;
69765;SDS011;57039;48.014;21.384;2023-03-23T06:00:14;25.10;;;15.57;;
69765;SDS011;57039;48.014;21.384;2023-03-23T06:01:18;21.47;;;12.97;;
69765;SDS011;57039;48.014;21.384;2023-03-23T06:02:19;27.67;;;13.57;;
69765;SDS011;57039;48.014;21.384;2023-03-23T06:03:21;25.35;;;14.07;;
69765;SDS011;57039;48.014;21.384;2023-03-23T06:04:24;25.70;;;14.77;;
69765;SDS011;57039;48.014;21.384;2023-03-23T06:05:26;26.05;;;14.63;;
69765;SDS011;57039;48.014;21.384;2023-03-23T06:06:28;28.67;;;14.25;;
69765;SDS011;57039;48.014;21.384;2023-03-23T06:07:33;26.98;;;14.45;;
69765;SDS011;57039;48.014;21.384;2023-03-23T06:08:35;25.52;;;14.02;;
69765;SDS011;57039;48.014;21.384;2023-03-23T06:09:38;26.30;;;13.90;;
69765;SDS011;57039;48.014;21.384;2023-03-23T06:10:41;24.90;;;13.88;;
69765;SDS011;57039;48.014;21.384;2023-03-23T06:11:46;25.67;;;15.33;;
69765;SDS011;57039;48.014;21.384;2023-03-23T06:12:49;34.70;;;21.00;;
69765;SDS011;57039;48.014;21.384;2023-03-23T06:13:53;50.47;;;25.95;;
69765;SDS011;57039;48.014;21.384;2023-03-23T06:14:55;27.92;;;16.05;;
69765;SDS011;57039;48.014;21.384;2023-03-23T06:15:56;30.48;;;17.00;;
69765;SDS011;57039;48.014;21.384;2023-03-23T06:17:02;26.83;;;14.07;;
69765;SDS011;57039;48.014;21.384;2023-03-23T06:18:03;23.98;;;14.20;;
69765;SDS011;57039;48.014;21.384;2023-03-23T06:19:06;25.60;;;14.95;;
69765;SDS011;57039;48.014;21.384;2023-03-23T06:20:08;41.00;;;24.73;;
69765;SDS011;57039;48.014;21.384;2023-03-23T06:21:13;332.52;;;124.50;;
69765;SDS011;57039;48.014;21.384;2023-03-23T06:22:16;488.27;;;216.40;;
69765;SDS011;57039;48.014;21.384;2023-03-23T06:23:19;257.00;;;107.70;;
69765;SDS011;57039;48.014;21.384;2023-03-23T06:24:21;61.22;;;29.90;;
69765;SDS011;57039;48.014;21.384;2023-03-23T06:25:23;32.85;;;18.85;;
69765;SDS011;57039;48.014;21.384;2023-03-23T06:26:29;26.35;;;15.27;;
69765;SDS011;57039;48.014;21.384;2023-03-23T06:27:33;26.40;;;15.35;;